Time;durP1;ratioP1;P1;durP2;ratioP2;P2;SDS_P1;SDS_P2;PMS_P1;PMS_P2;Temp;Humidity;BMP_temperature;BMP_pressure;BME280_temperature;BME280_humidity;BME280_pressure;Samples;Min_cycle;Max_cycle;Signal;HPM_P1;HPM_P2
2022/09/19 00:01:32;;;;;;;1.67;1.23;;;;;;;13.37;89.73;96321.81;5060040;28;20229;-74
2022/09/19 00:04:03;;;;;;;1.50;1.17;;;;;;;13.43;87.83;96311.88;5062031;28;20213;-74
2022/09/19 00:06:32;;;;;;;2.70;1.20;;;;;;;13.44;85.14;96316.25;5054244;28;20206;-74
2022/09/19 00:09:00;;;;;;;4.10;1.17;;;;;;;13.44;83.74;96308.13;5059219;28;20198;-74
2022/09/19 00:11:27;;;;;;;2.27;1.20;;;;;;;13.50;84.16;96299.78;5056131;28;20206;-74
2022/09/19 00:13:58;;;;;;;2.27;1.10;;;;;;;13.50;85.81;96304.38;5049954;28;20210;-74
2022/09/19 00:16:27;;;;;;;3.30;1.00;;;;;;;13.46;86.51;96304.06;5056623;28;20222;-74
2022/09/19 00:18:56;;;;;;;1.80;1.10;;;;;;;13.43;88.23;96307.28;5052469;28;20201;-74
2022/09/19 00:21:25;;;;;;;4.63;1.27;;;;;;;13.39;85.32;96300.69;5050707;28;20283;-74
2022/09/19 00:26:37;;;;;;;1.93;1.00;;;;;;;13.42;84.56;96311.06;5052505;28;20233;-74
2022/09/19 00:29:07;;;;;;;1.50;1.13;;;;;;;13.44;85.20;96302.69;5061456;28;20202;-75
2022/09/19 00:31:34;;;;;;;1.00;0.93;;;;;;;13.35;87.16;96306.88;5056521;28;20233;-74
2022/09/19 00:34:06;;;;;;;1.67;1.07;;;;;;;13.45;81.89;96304.31;5058439;28;20206;-75
2022/09/19 00:36:33;;;;;;;1.57;1.20;;;;;;;13.46;81.74;96300.53;5046527;28;20276;-75
2022/09/19 00:39:01;;;;;;;3.37;1.00;;;;;;;13.50;79.34;96297.06;5050011;28;20194;-74
2022/09/19 00:41:28;;;;;;;1.57;1.10;;;;;;;13.52;79.47;96303.09;5055001;28;20288;-74
2022/09/19 00:43:57;;;;;;;1.50;1.07;;;;;;;13.52;77.76;96286.81;5051939;28;20224;-74
2022/09/19 00:46:27;;;;;;;1.93;1.10;;;;;;;13.61;77.17;96303.44;5057031;28;20205;-75
2022/09/19 00:48:59;;;;;;;3.03;0.93;;;;;;;13.59;76.74;96292.88;5057007;28;20207;-74
2022/09/19 00:51:31;;;;;;;2.83;1.27;;;;;;;13.64;76.54;96297.53;5050487;28;20206;-74
2022/09/19 00:54:01;;;;;;;2.40;1.40;;;;;;;13.60;77.70;96305.38;5066374;28;20197;-74
2022/09/19 00:56:28;;;;;;;3.73;1.17;;;;;;;13.54;79.97;96300.91;5050058;28;20297;-76
2022/09/19 00:58:57;;;;;;;3.47;1.10;;;;;;;13.48;79.47;96293.78;5060101;28;20209;-74
2022/09/19 01:01:25;;;;;;;3.63;1.10;;;;;;;13.47;79.97;96292.13;5050850;28;20234;-74
2022/09/19 01:03:53;;;;;;;2.03;1.10;;;;;;;13.47;77.13;96286.72;5058393;28;20221;-74
2022/09/19 01:06:42;;;;;;;2.10;1.20;;;;;;;13.55;76.45;96294.44;5052554;28;20194;-75
2022/09/19 01:09:27;;;;;;;2.07;1.20;;;;;;;13.57;76.25;96289.56;5051119;28;20206;-74
2022/09/19 01:12:06;;;;;;;2.20;0.90;;;;;;;13.56;78.96;96296.06;5048733;28;20208;-75
2022/09/19 01:14:53;;;;;;;1.30;1.00;;;;;;;13.44;83.83;96289.91;5050239;28;20210;-75
2022/09/19 01:17:28;;;;;;;1.97;1.00;;;;;;;13.29;81.68;96300.53;5057039;28;20263;-75
2022/09/19 01:20:30;;;;;;;1.13;0.90;;;;;;;13.27;82.50;96296.47;5049763;28;20493;-74
2022/09/19 01:23:12;;;;;;;1.17;0.90;;;;;;;13.21;81.78;96295.53;5061449;28;20241;-74
2022/09/19 01:25:46;;;;;;;1.27;1.10;;;;;;;13.17;83.18;96297.13;5060177;28;20198;-74
2022/09/19 01:28:20;;;;;;;1.93;1.13;;;;;;;13.18;83.29;96298.78;5057151;28;20228;-75
2022/09/19 01:33:43;;;;;;;2.47;1.17;;;;;;;13.13;86.38;96298.63;5049569;28;20205;-74
2022/09/19 01:36:15;;;;;;;1.40;1.07;;;;;;;13.10;85.28;96296.44;5058540;28;20201;-74
2022/09/19 01:38:45;;;;;;;2.30;1.20;;;;;;;13.02;86.86;96292.22;5054716;28;20237;-74
2022/09/19 01:41:14;;;;;;;2.03;1.20;;;;;;;13.07;85.54;96294.22;5059231;28;20209;-74
2022/09/19 01:43:43;;;;;;;1.80;1.00;;;;;;;13.07;85.74;96295.03;5058989;28;20229;-74
2022/09/19 01:46:23;;;;;;;4.00;1.17;;;;;;;13.09;80.55;96313.78;5060930;28;20210;-74
2022/09/19 01:48:55;;;;;;;2.00;0.90;;;;;;;13.21;76.35;96315.34;5063253;28;20238;-74
2022/09/19 01:51:30;;;;;;;1.63;1.00;;;;;;;13.41;71.12;96314.84;5060110;28;20202;-74
2022/09/19 01:54:15;;;;;;;2.47;1.17;;;;;;;13.60;70.48;96316.22;5052077;28;20215;-74
2022/09/19 01:57:04;;;;;;;1.23;0.97;;;;;;;13.70;70.43;96317.41;5050221;28;20213;-74
2022/09/19 02:00:02;;;;;;;1.10;0.90;;;;;;;13.73;69.46;96311.47;5047366;28;20209;-74
2022/09/19 02:02:39;;;;;;;1.20;1.00;;;;;;;13.84;67.73;96307.84;5055463;28;20222;-74
2022/09/19 02:05:11;;;;;;;2.30;1.17;;;;;;;13.94;65.98;96311.50;5055434;28;20224;-74
2022/09/19 02:07:49;;;;;;;4.20;1.17;;;;;;;13.97;65.67;96310.16;5053228;28;20202;-74
2022/09/19 02:10:22;;;;;;;2.93;1.00;;;;;;;13.92;69.02;96313.66;5054195;28;20205;-74
2022/09/19 02:12:56;;;;;;;3.03;1.20;;;;;;;13.89;70.54;96299.75;5050784;28;20205;-74
2022/09/19 02:15:53;;;;;;;1.50;1.00;;;;;;;13.78;72.17;96298.78;5066554;28;20225;-74
2022/09/19 02:18:30;;;;;;;2.27;0.93;;;;;;;13.76;71.34;96308.28;5059464;28;20262;-75
2022/09/19 02:21:05;;;;;;;5.17;1.13;;;;;;;13.74;72.51;96299.56;5053725;28;20257;-75
2022/09/19 02:23:37;;;;;;;4.00;1.67;;;;;;;13.70;71.79;96314.69;5058019;28;20214;-74
2022/09/19 02:26:09;;;;;;;1.07;0.87;;;;;;;13.68;72.98;96317.69;5057525;28;20210;-74
2022/09/19 02:28:42;;;;;;;2.37;1.10;;;;;;;13.65;73.35;96320.88;5061673;28;20317;-74
2022/09/19 02:31:15;;;;;;;2.30;0.90;;;;;;;13.67;73.86;96315.22;5053479;28;20308;-75
2022/09/19 02:33:46;;;;;;;2.40;1.03;;;;;;;13.66;70.70;96310.84;5053154;28;20198;-74
2022/09/19 02:36:22;;;;;;;1.30;1.00;;;;;;;13.77;68.23;96313.47;5055945;28;20210;-74
2022/09/19 02:38:57;;;;;;;1.53;1.10;;;;;;;13.81;69.76;96309.16;5053187;28;20245;-74
2022/09/19 02:41:52;;;;;;;3.10;1.27;;;;;;;13.85;67.32;96309.50;5053905;28;20206;-74
2022/09/19 02:44:25;;;;;;;1.97;1.10;;;;;;;13.86;69.25;96316.56;5060217;28;20267;-74
2022/09/19 02:47:02;;;;;;;1.30;1.00;;;;;;;13.96;69.21;96313.94;5056574;28;20297;-74
2022/09/19 02:49:38;;;;;;;1.23;1.00;;;;;;;13.85;69.70;96310.31;5055579;28;20240;-74
2022/09/19 02:52:13;;;;;;;1.10;1.00;;;;;;;13.74;72.19;96302.28;5055298;28;20202;-74
2022/09/19 02:54:44;;;;;;;2.23;1.20;;;;;;;13.74;70.80;96299.56;5052218;28;20205;-74
2022/09/19 02:57:16;;;;;;;1.70;1.00;;;;;;;13.75;68.34;96304.75;5058000;28;20216;-75
2022/09/19 02:59:47;;;;;;;2.67;1.30;;;;;;;13.85;67.04;96293.19;5060775;28;20205;-74
2022/09/19 03:02:20;;;;;;;1.97;1.10;;;;;;;13.81;69.49;96297.47;5054876;28;20210;-74
2022/09/19 03:04:54;;;;;;;1.13;0.90;;;;;;;13.78;70.48;96304.22;5064298;28;20220;-74
2022/09/19 03:07:27;;;;;;;1.73;1.10;;;;;;;13.70;71.48;96301.94;5052056;28;20497;-74
2022/09/19 03:10:13;;;;;;;1.90;1.10;;;;;;;13.67;72.62;96312.50;5058755;28;20202;-74
2022/09/19 03:12:53;;;;;;;1.43;1.17;;;;;;;13.64;70.58;96297.53;5049584;28;20198;-74
2022/09/19 03:15:23;;;;;;;1.20;1.10;;;;;;;13.63;72.01;96290.44;5052023;28;20226;-74
2022/09/19 03:17:54;;;;;;;3.20;1.43;;;;;;;13.61;74.04;96306.97;5052462;28;20209;-74
2022/09/19 03:20:23;;;;;;;1.90;1.40;;;;;;;13.60;72.52;96312.69;5057179;28;20217;-74
2022/09/19 03:22:53;;;;;;;1.77;1.30;;;;;;;13.54;72.71;96303.63;5049328;28;20253;-74
2022/09/19 03:25:21;;;;;;;1.67;1.10;;;;;;;13.52;73.15;96304.97;5070677;28;20204;-74
2022/09/19 03:27:51;;;;;;;2.37;1.00;;;;;;;13.47;74.50;96308.41;5049644;28;20221;-75
2022/09/19 03:30:19;;;;;;;4.53;1.20;;;;;;;13.49;75.65;96305.47;5069955;28;20209;-74
2022/09/19 03:32:46;;;;;;;1.00;0.90;;;;;;;13.42;76.85;96304.81;5054912;28;20194;-74
2022/09/19 03:35:15;;;;;;;1.40;1.20;;;;;;;13.38;77.19;96293.63;5053381;28;20255;-74
2022/09/19 03:37:44;;;;;;;4.10;1.17;;;;;;;13.36;77.23;96295.75;5056145;28;20205;-74
2022/09/19 03:40:11;;;;;;;1.40;1.10;;;;;;;13.34;78.18;96295.22;5050437;28;20265;-74
2022/09/19 03:42:39;;;;;;;1.70;1.10;;;;;;;13.37;77.82;96308.25;5049352;28;20291;-74
2022/09/19 03:45:08;;;;;;;2.20;0.90;;;;;;;13.38;77.02;96309.91;5049667;28;20202;-74
2022/09/19 03:47:39;;;;;;;1.83;1.07;;;;;;;13.45;75.33;96296.16;5057579;28;20202;-74
2022/09/19 03:50:07;;;;;;;2.33;1.10;;;;;;;13.42;76.49;96305.63;5057503;28;20264;-75
2022/09/19 03:52:39;;;;;;;4.50;1.20;;;;;;;13.38;78.41;96309.91;5050444;28;20198;-74
2022/09/19 03:55:07;;;;;;;1.97;1.20;;;;;;;13.40;78.40;96312.38;5056024;28;20208;-74
2022/09/19 03:57:40;;;;;;;1.67;1.30;;;;;;;13.42;78.30;96308.34;5051636;28;20252;-74
2022/09/19 04:00:08;;;;;;;1.80;1.20;;;;;;;13.34;80.10;96316.91;5056179;28;20202;-75
2022/09/19 04:02:44;;;;;;;2.53;1.20;;;;;;;13.33;79.70;96307.13;5053552;28;20206;-74
2022/09/19 04:05:13;;;;;;;2.63;1.23;;;;;;;13.32;79.75;96316.34;5048572;28;20225;-74
2022/09/19 04:07:42;;;;;;;3.63;1.20;;;;;;;13.32;79.96;96318.22;5061552;28;20202;-74
2022/09/19 04:10:10;;;;;;;2.47;1.33;;;;;;;13.30;79.27;96321.19;5049792;28;20197;-74
2022/09/19 04:12:39;;;;;;;2.37;1.10;;;;;;;13.27;79.30;96320.88;5059510;28;20197;-75
2022/09/19 04:15:08;;;;;;;1.50;1.10;;;;;;;13.24;79.92;96319.47;5058809;28;20237;-74
2022/09/19 04:17:35;;;;;;;2.33;1.20;;;;;;;13.24;78.96;96319.47;5061003;28;20202;-74
2022/09/19 04:20:09;;;;;;;2.87;1.30;;;;;;;13.25;80.02;96319.22;5052344;28;20271;-74
2022/09/19 04:22:45;;;;;;;1.50;1.20;;;;;;;13.22;79.48;96316.16;5050601;28;20233;-74
2022/09/19 04:25:18;;;;;;;3.33;1.40;;;;;;;13.33;79.22;96319.88;5049087;28;20338;-74
2022/09/19 04:28:05;;;;;;;2.30;1.37;;;;;;;13.26;80.07;96328.19;5049209;28;20194;-75
2022/09/19 04:30:36;;;;;;;2.73;1.50;;;;;;;13.18;80.30;96326.66;5061147;28;20210;-73
2022/09/19 04:33:06;;;;;;;2.00;1.30;;;;;;;13.17;80.80;96314.22;5052570;28;20207;-73
2022/09/19 04:35:35;;;;;;;2.50;1.70;;;;;;;13.25;81.07;96330.06;5054609;28;20214;-73
2022/09/19 04:38:07;;;;;;;2.17;1.40;;;;;;;13.29;79.86;96338.50;5048869;28;20225;-74
2022/09/19 04:40:38;;;;;;;1.30;1.20;;;;;;;13.31;80.28;96335.56;5060940;28;20225;-74
2022/09/19 04:43:06;;;;;;;1.53;1.20;;;;;;;13.27;79.57;96334.44;5062832;28;20201;-74
2022/09/19 04:45:33;;;;;;;1.93;1.20;;;;;;;13.19;80.20;96327.50;5060897;28;20206;-75
2022/09/19 04:48:12;;;;;;;2.90;1.30;;;;;;;13.25;80.18;96327.34;5052222;28;20205;-73
2022/09/19 04:50:39;;;;;;;3.00;1.40;;;;;;;13.23;79.75;96339.50;5051469;28;20229;-73
2022/09/19 04:53:12;;;;;;;2.93;1.40;;;;;;;13.14;82.20;96346.41;5048844;28;20194;-73
2022/09/19 04:55:41;;;;;;;3.97;1.57;;;;;;;13.12;82.69;96354.75;5053075;28;20210;-73
2022/09/19 04:58:08;;;;;;;1.87;1.47;;;;;;;13.14;81.88;96347.22;5049631;28;20194;-73
2022/09/19 05:00:38;;;;;;;2.43;1.37;;;;;;;13.10;83.56;96350.66;5049800;28;20214;-73
2022/09/19 05:03:11;;;;;;;2.20;1.30;;;;;;;13.08;82.48;96353.63;5062034;28;20206;-73
2022/09/19 05:05:44;;;;;;;2.53;1.60;;;;;;;13.07;82.88;96351.16;5054805;28;20236;-73
2022/09/19 05:08:17;;;;;;;1.97;1.40;;;;;;;13.15;82.74;96348.06;5061907;28;20251;-73
2022/09/19 05:10:46;;;;;;;2.63;1.47;;;;;;;13.17;82.73;96352.16;5051744;28;20201;-74
2022/09/19 05:13:14;;;;;;;3.27;1.20;;;;;;;13.13;84.09;96361.00;5054004;28;20205;-73
2022/09/19 05:15:41;;;;;;;1.93;1.10;;;;;;;13.04;84.82;96357.88;5062236;28;20218;-73
2022/09/19 05:18:10;;;;;;;3.67;1.53;;;;;;;13.06;85.64;96365.75;5049455;28;20280;-73
2022/09/19 05:20:38;;;;;;;3.47;1.70;;;;;;;12.96;88.32;96362.88;5058125;28;20202;-73
2022/09/19 05:23:06;;;;;;;3.33;1.40;;;;;;;13.01;85.83;96368.41;5055861;28;20263;-73
2022/09/19 05:25:39;;;;;;;4.87;1.40;;;;;;;13.02;86.53;96365.41;5050129;28;20202;-75
2022/09/19 05:28:07;;;;;;;3.93;1.53;;;;;;;12.87;90.19;96379.53;5053981;28;20265;-74
2022/09/19 05:30:38;;;;;;;2.33;1.60;;;;;;;12.99;86.38;96379.47;5053374;28;20207;-74
2022/09/19 05:33:06;;;;;;;2.50;1.50;;;;;;;12.95;85.67;96382.91;5058606;28;20300;-74
2022/09/19 05:35:42;;;;;;;5.83;1.40;;;;;;;12.94;86.04;96390.22;5056722;28;20206;-74
2022/09/19 05:38:21;;;;;;;3.20;1.30;;;;;;;12.96;85.48;96387.25;5054667;28;20287;-74
2022/09/19 05:41:07;;;;;;;2.17;1.30;;;;;;;12.96;85.26;96392.69;5050513;28;20202;-74
2022/09/19 05:43:51;;;;;;;4.37;1.33;;;;;;;12.99;85.02;96397.63;5050619;28;20229;-75
2022/09/19 05:46:20;;;;;;;2.63;1.53;;;;;;;12.94;86.29;96401.06;5052102;28;20293;-74
2022/09/19 05:48:49;;;;;;;2.17;1.23;;;;;;;12.96;86.35;96400.81;5057137;28;20211;-74
2022/09/19 05:51:16;;;;;;;6.17;1.47;;;;;;;13.04;86.21;96409.38;5062089;28;20232;-74
2022/09/19 05:53:52;;;;;;;2.43;1.40;;;;;;;12.97;86.24;96405.16;5062099;28;20194;-75
2022/09/19 05:56:40;;;;;;;4.07;1.30;;;;;;;13.01;86.65;96404.47;5052079;28;20213;-74
2022/09/19 05:59:09;;;;;;;1.63;1.50;;;;;;;12.99;86.53;96413.88;5057603;28;20288;-75
2022/09/19 06:01:38;;;;;;;1.47;1.20;;;;;;;12.98;87.78;96418.47;5055492;28;20210;-75
2022/09/19 06:04:09;;;;;;;2.60;1.20;;;;;;;12.92;89.66;96422.19;5061249;28;20222;-74
2022/09/19 06:06:39;;;;;;;2.23;1.23;;;;;;;12.86;90.39;96421.25;5069896;28;20271;-74
2022/09/19 06:09:08;;;;;;;1.90;1.20;;;;;;;12.77;92.52;96417.28;5058122;28;20233;-74
2022/09/19 06:11:40;;;;;;;4.57;1.30;;;;;;;12.76;93.46;96423.75;5057393;28;20210;-74
2022/09/19 06:14:22;;;;;;;1.97;1.40;;;;;;;12.83;90.53;96423.63;5064848;28;20238;-74
2022/09/19 06:16:51;;;;;;;2.47;1.43;;;;;;;12.86;90.98;96431.25;5054736;28;20198;-74
2022/09/19 06:19:49;;;;;;;2.80;1.23;;;;;;;12.86;91.87;96434.78;5054443;28;20217;-74
2022/09/19 06:22:32;;;;;;;2.60;1.53;;;;;;;12.95;91.62;96432.50;5052541;28;20244;-74
2022/09/19 06:25:00;;;;;;;1.83;1.43;;;;;;;12.93;89.39;96423.00;5064969;28;20217;-74
2022/09/19 06:27:29;;;;;;;2.87;1.47;;;;;;;13.01;88.52;96428.03;5063308;28;20205;-74
2022/09/19 06:29:57;;;;;;;4.73;1.30;;;;;;;13.04;87.97;96424.81;5057705;28;20216;-74
2022/09/19 06:32:39;;;;;;;1.97;1.23;;;;;;;13.07;88.47;96429.75;5061413;28;20208;-74
2022/09/19 06:35:12;;;;;;;2.07;1.20;;;;;;;13.10;88.14;96426.56;5052560;28;20206;-74
2022/09/19 06:37:39;;;;;;;1.83;1.43;;;;;;;13.08;87.99;96432.22;5049994;28;20221;-76
2022/09/19 06:40:10;;;;;;;2.20;1.40;;;;;;;13.11;89.00;96428.19;5052934;28;20212;-74
2022/09/19 06:42:58;;;;;;;1.40;1.30;;;;;;;13.13;89.50;96445.91;5053764;28;20213;-74
2022/09/19 06:45:31;;;;;;;3.43;1.30;;;;;;;13.15;88.26;96434.81;5053855;28;20218;-74
2022/09/19 06:48:15;;;;;;;1.87;1.20;;;;;;;13.21;88.48;96439.25;5066206;28;20255;-74
2022/09/19 06:50:59;;;;;;;3.33;1.47;;;;;;;13.23;86.81;96440.66;5074690;28;20214;-74
2022/09/19 06:53:28;;;;;;;2.13;1.40;;;;;;;13.21;87.29;96436.53;5057093;28;20201;-74
2022/09/19 06:55:59;;;;;;;3.43;1.67;;;;;;;13.25;86.40;96441.25;5053706;28;20209;-75
2022/09/19 06:58:27;;;;;;;2.80;1.30;;;;;;;13.22;84.88;96446.31;5050845;28;20293;-74
2022/09/19 07:00:55;;;;;;;2.03;1.17;;;;;;;13.18;84.71;96445.19;5052454;28;20208;-74
2022/09/19 07:03:23;;;;;;;5.50;1.30;;;;;;;13.18;85.39;96450.59;5051585;28;20210;-74
2022/09/19 07:06:08;;;;;;;1.97;1.37;;;;;;;13.16;86.59;96452.72;5057044;28;20271;-74
2022/09/19 07:08:43;;;;;;;3.20;1.37;;;;;;;13.14;85.56;96455.69;5064146;28;20206;-74
2022/09/19 07:11:11;;;;;;;2.13;1.20;;;;;;;13.08;85.88;96447.66;5064399;28;20213;-74
2022/09/19 07:13:50;;;;;;;2.20;1.30;;;;;;;13.15;85.95;96462.75;5050943;28;20200;-74
2022/09/19 07:16:19;;;;;;;1.67;1.20;;;;;;;13.19;86.06;96463.06;5050490;28;20222;-74
2022/09/19 07:18:46;;;;;;;4.87;1.23;;;;;;;13.18;87.08;96461.44;5053066;28;20198;-74
2022/09/19 07:21:53;;;;;;;2.63;1.33;;;;;;;13.21;85.94;96471.78;5049766;28;20233;-74
2022/09/19 07:24:51;;;;;;;2.30;1.37;;;;;;;13.22;86.49;96473.44;5061313;28;20210;-74
2022/09/19 07:27:28;;;;;;;3.00;1.30;;;;;;;13.23;86.69;96473.19;5056509;28;20202;-74
2022/09/19 07:29:56;;;;;;;1.70;1.10;;;;;;;13.26;85.57;96477.31;5055852;28;20253;-74
2022/09/19 07:32:24;;;;;;;2.20;1.23;;;;;;;13.28;86.15;96480.59;5058470;28;20224;-74
2022/09/19 07:34:51;;;;;;;2.90;1.40;;;;;;;13.31;86.73;96490.13;5064078;28;20205;-74
2022/09/19 07:37:18;;;;;;;3.00;1.33;;;;;;;13.29;85.85;96490.38;5054325;28;20194;-74
2022/09/19 07:39:51;;;;;;;1.30;1.20;;;;;;;13.26;88.37;96501.72;5054695;28;20201;-74
2022/09/19 07:42:32;;;;;;;2.77;1.33;;;;;;;13.34;88.65;96493.19;5054753;28;20241;-74
2022/09/19 07:45:17;;;;;;;2.30;1.20;;;;;;;13.34;86.91;96497.78;5053626;28;20221;-74
2022/09/19 07:48:05;;;;;;;3.57;1.50;;;;;;;13.38;87.69;96498.94;5054845;28;20218;-74
2022/09/19 07:50:44;;;;;;;3.27;1.20;;;;;;;13.39;85.86;96506.00;5052392;28;20304;-74
2022/09/19 07:53:22;;;;;;;2.10;1.17;;;;;;;13.36;84.27;96512.72;5067837;28;20201;-74
2022/09/19 07:55:51;;;;;;;2.93;1.60;;;;;;;13.37;83.84;96508.97;5054808;28;20206;-74
2022/09/19 07:58:20;;;;;;;3.80;1.53;;;;;;;13.34;84.48;96509.47;5065785;28;20198;-75
2022/09/19 08:00:53;;;;;;;2.37;1.10;;;;;;;13.40;84.56;96519.31;5068327;28;20215;-74
2022/09/19 08:03:44;;;;;;;1.93;1.20;;;;;;;13.42;84.56;96522.63;5055246;28;20206;-74
2022/09/19 08:06:12;;;;;;;3.93;1.40;;;;;;;13.38;85.29;96521.47;5060200;28;20228;-74
2022/09/19 08:08:40;;;;;;;1.93;1.27;;;;;;;13.43;85.79;96537.84;5066098;28;20302;-74
2022/09/19 08:11:19;;;;;;;2.97;1.50;;;;;;;13.43;86.07;96529.69;5062904;28;20206;-74
2022/09/19 08:13:46;;;;;;;4.87;1.40;;;;;;;13.46;86.96;96536.50;5050675;28;20217;-75
2022/09/19 08:16:15;;;;;;;1.87;1.17;;;;;;;13.56;86.19;96537.53;5061360;28;20264;-74
2022/09/19 08:18:43;;;;;;;2.43;1.37;;;;;;;13.50;85.98;96540.41;5061592;28;20327;-75
2022/09/19 08:21:10;;;;;;;4.70;1.40;;;;;;;13.57;87.13;96539.16;5054044;28;20331;-74
2022/09/19 08:23:37;;;;;;;4.37;1.20;;;;;;;13.53;85.80;96538.00;5048442;28;20281;-74
2022/09/19 08:26:06;;;;;;;3.87;1.30;;;;;;;13.60;85.72;96535.97;5050454;28;20218;-75
2022/09/19 08:28:34;;;;;;;2.63;1.23;;;;;;;13.78;86.44;96525.97;5057522;28;20205;-73
2022/09/19 08:31:03;;;;;;;3.47;1.23;;;;;;;13.90;86.26;96540.25;5053786;28;20204;-74
2022/09/19 08:33:37;;;;;;;2.63;1.20;;;;;;;13.83;83.88;96536.91;5058623;28;20284;-74
2022/09/19 08:36:05;;;;;;;5.37;1.10;;;;;;;13.95;83.77;96541.16;5056758;28;20209;-74
2022/09/19 08:38:34;;;;;;;1.57;1.10;;;;;;;14.14;83.15;96546.34;5053130;28;20202;-74
2022/09/19 08:41:39;;;;;;;6.33;1.40;;;;;;;14.12;81.72;96548.50;5055482;28;20294;-74
2022/09/19 08:44:14;;;;;;;3.43;1.30;;;;;;;14.13;83.49;96550.13;5057624;28;20206;-75
2022/09/19 08:46:51;;;;;;;6.03;1.47;;;;;;;14.10;82.79;96543.31;5061282;28;20202;-75
2022/09/19 08:49:24;;;;;;;1.87;1.33;;;;;;;14.20;84.72;96542.66;5056361;28;20209;-75
2022/09/19 08:51:59;;;;;;;2.63;1.20;;;;;;;14.50;80.64;96539.59;5054508;28;20225;-76
2022/09/19 08:54:30;;;;;;;2.27;1.30;;;;;;;14.50;80.43;96551.28;5054548;28;20220;-74
2022/09/19 08:57:03;;;;;;;3.73;1.30;;;;;;;14.44;81.38;96552.28;5062347;28;20217;-74
2022/09/19 08:59:36;;;;;;;1.23;1.03;;;;;;;14.38;80.16;96543.22;5051831;28;20236;-75
2022/09/19 09:02:26;;;;;;;1.77;1.00;;;;;;;14.36;81.57;96552.69;5060327;28;20209;-74
2022/09/19 09:05:12;;;;;;;2.60;1.30;;;;;;;14.22;80.73;96546.75;5062325;28;20240;-74
2022/09/19 09:07:51;;;;;;;3.23;1.00;;;;;;;14.25;83.67;96559.84;5054511;28;20319;-74
2022/09/19 09:10:51;;;;;;;1.30;1.07;;;;;;;14.38;81.38;96554.09;5054244;28;20204;-74
2022/09/19 09:13:32;;;;;;;14.23;1.43;;;;;;;14.31;81.16;96555.31;5051561;28;20229;-74
2022/09/19 09:16:11;;;;;;;2.27;1.30;;;;;;;14.23;83.07;96566.59;5053641;28;20230;-73
2022/09/19 09:19:02;;;;;;;5.47;1.60;;;;;;;14.17;83.45;96557.53;5052869;28;20202;-74
2022/09/19 09:21:42;;;;;;;2.60;1.30;;;;;;;14.15;83.42;96559.69;5060467;28;20264;-73
2022/09/19 09:24:17;;;;;;;2.43;1.50;;;;;;;14.13;83.76;96556.38;5063425;28;20229;-74
2022/09/19 09:26:59;;;;;;;2.40;1.20;;;;;;;14.47;82.88;96546.34;5052914;28;20224;-74
2022/09/19 09:29:32;;;;;;;2.53;1.10;;;;;;;14.47;80.36;96546.34;5050595;28;20205;-73
2022/09/19 09:32:18;;;;;;;2.97;1.40;;;;;;;14.77;79.08;96549.50;5050922;28;20211;-75
2022/09/19 09:35:00;;;;;;;3.40;1.20;;;;;;;14.90;77.98;96551.00;5048725;28;20202;-74
2022/09/19 09:37:35;;;;;;;2.07;1.27;;;;;;;14.92;77.50;96554.28;5064883;28;20211;-73
2022/09/19 09:41:44;;;;;;;1.60;1.30;;;;;;;14.95;78.13;96552.97;5054508;28;20209;-74
2022/09/19 09:43:06;;;;;;;1.37;1.03;;;;;;;15.21;76.86;96548.66;5054727;28;20202;-74
2022/09/19 09:45:44;;;;;;;2.30;1.40;;;;;;;15.13;76.25;96542.59;5056474;28;20244;-74
2022/09/19 09:48:20;;;;;;;1.83;1.30;;;;;;;14.99;77.29;96537.78;5057204;28;20264;-74
2022/09/19 09:51:02;;;;;;;3.17;1.43;;;;;;;15.24;76.74;96540.81;5060668;28;20206;-74
2022/09/19 09:53:46;;;;;;;3.33;1.47;;;;;;;15.28;77.12;96538.41;5061239;28;20294;-74
2022/09/19 09:56:19;;;;;;;2.20;1.00;;;;;;;15.46;73.16;96543.50;5046556;28;20213;-74
2022/09/19 09:59:02;;;;;;;1.70;0.93;;;;;;;15.60;71.73;96539.31;5045328;28;20201;-74
2022/09/19 10:04:30;;;;;;;2.83;1.20;;;;;;;15.99;71.18;96536.41;5061829;28;20273;-74
2022/09/19 10:07:18;;;;;;;2.13;1.20;;;;;;;16.07;71.55;96530.50;5061905;28;20295;-74
2022/09/19 10:09:54;;;;;;;2.73;1.17;;;;;;;16.34;70.64;96531.22;5054354;28;20211;-74
2022/09/19 10:12:25;;;;;;;4.20;1.03;;;;;;;16.39;70.67;96536.72;5050906;28;20213;-74
2022/09/19 10:14:58;;;;;;;1.80;1.20;;;;;;;16.42;70.67;96527.16;5059650;28;20239;-74
2022/09/19 10:17:45;;;;;;;3.00;1.30;;;;;;;16.38;70.57;96529.63;5050472;28;20198;-74
2022/09/19 10:20:22;;;;;;;1.50;1.10;;;;;;;16.69;68.99;96527.09;5057220;28;20216;-76
2022/09/19 10:22:50;;;;;;;1.07;0.97;;;;;;;16.57;67.38;96530.00;5059688;28;20229;-74
2022/09/19 10:25:23;;;;;;;1.00;0.90;;;;;;;16.61;67.46;96531.97;5056859;28;20218;-74
2022/09/19 10:27:50;;;;;;;1.47;1.10;;;;;;;16.37;68.42;96530.69;5056765;28;20229;-74
2022/09/19 10:30:41;;;;;;;2.30;1.10;;;;;;;16.28;69.82;96526.81;5057689;28;20217;-76
2022/09/19 10:33:28;;;;;;;1.83;1.10;;;;;;;16.44;68.11;96525.00;5055225;28;20202;-74
2022/09/19 10:36:06;;;;;;;1.50;1.03;;;;;;;16.47;68.72;96527.22;5052015;28;20206;-74
2022/09/19 10:38:48;;;;;;;1.80;1.13;;;;;;;16.58;66.79;96518.84;5061191;28;20213;-74
2022/09/19 10:41:22;;;;;;;1.60;1.00;;;;;;;16.68;67.51;96518.09;5058365;28;20214;-75
2022/09/19 10:43:55;;;;;;;2.37;1.03;;;;;;;16.57;69.77;96522.66;5065334;28;20209;-74
2022/09/19 10:46:31;;;;;;;1.97;1.27;;;;;;;16.57;68.72;96511.75;5065206;28;20218;-74
2022/09/19 10:49:20;;;;;;;1.10;1.00;;;;;;;16.92;68.78;96508.41;5051713;28;20214;-73
2022/09/19 10:51:50;;;;;;;2.43;1.00;;;;;;;17.00;67.06;96507.91;5060213;28;20197;-74
2022/09/19 10:54:30;;;;;;;1.70;1.17;;;;;;;17.27;66.50;96510.44;5061275;28;20205;-73
2022/09/19 10:57:00;;;;;;;6.10;1.50;;;;;;;16.73;67.27;96515.41;5054862;28;20214;-73
2022/09/19 10:59:36;;;;;;;1.90;1.20;;;;;;;16.22;69.16;96516.97;5062749;28;20204;-74
2022/09/19 11:02:25;;;;;;;2.07;1.43;;;;;;;16.37;69.61;96511.63;5066563;28;20224;-74
2022/09/19 11:04:57;;;;;;;2.50;1.10;;;;;;;16.48;68.59;96505.16;5067007;28;20206;-74
2022/09/19 11:07:28;;;;;;;2.33;1.40;;;;;;;16.84;66.11;96498.00;5081026;28;20267;-74
2022/09/19 11:09:59;;;;;;;4.20;1.50;;;;;;;17.24;66.32;96501.97;5055183;28;20213;-75
2022/09/19 11:12:30;;;;;;;3.37;1.37;;;;;;;17.34;66.92;96500.09;5060601;28;20202;-75
2022/09/19 11:14:59;;;;;;;4.00;1.60;;;;;;;17.36;64.81;96497.91;5068276;28;20321;-74
2022/09/19 11:18:01;;;;;;;3.10;2.43;;;;;;;17.47;65.45;96506.13;5051523;28;20281;-74
2022/09/19 11:20:48;;;;;;;1.43;1.10;;;;;;;17.35;65.88;96500.91;5064408;28;20274;-74
2022/09/19 11:23:52;;;;;;;2.00;1.20;;;;;;;17.13;66.83;96498.38;5048019;28;20232;-73
2022/09/19 11:26:32;;;;;;;2.37;1.13;;;;;;;16.85;68.10;96507.00;5058858;28;20230;-74
2022/09/19 11:29:17;;;;;;;1.60;1.10;;;;;;;16.49;68.74;96503.25;5070388;28;20210;-74
2022/09/19 11:32:02;;;;;;;2.87;1.30;;;;;;;16.50;68.59;96505.69;5066022;28;20197;-75
2022/09/19 11:34:41;;;;;;;1.47;1.13;;;;;;;16.60;68.14;96508.47;5065125;28;20204;-74
2022/09/19 11:37:25;;;;;;;1.87;1.10;;;;;;;17.08;64.82;96501.09;5065053;28;20201;-75
2022/09/19 11:40:05;;;;;;;1.70;1.20;;;;;;;17.25;64.29;96503.63;5059664;28;20230;-74
2022/09/19 11:42:47;;;;;;;3.50;1.20;;;;;;;17.19;65.38;96500.03;5061632;28;20229;-74
2022/09/19 11:45:18;;;;;;;2.83;1.30;;;;;;;17.36;65.49;96497.91;5062987;28;20224;-74
2022/09/19 11:48:07;;;;;;;2.93;1.40;;;;;;;17.42;64.80;96484.28;5052929;28;20205;-74
2022/09/19 11:50:59;;;;;;;3.00;1.40;;;;;;;17.63;64.08;96484.06;5054993;28;20246;-74
2022/09/19 11:53:40;;;;;;;2.03;1.10;;;;;;;17.78;62.75;96483.25;5048423;28;20206;-75
2022/09/19 11:56:28;;;;;;;1.20;1.10;;;;;;;18.03;61.13;96480.50;5056688;28;20202;-74
2022/09/19 11:59:04;;;;;;;2.00;1.07;;;;;;;18.13;60.51;96480.50;5064772;28;20201;-74
2022/09/19 12:01:44;;;;;;;2.20;1.10;;;;;;;18.12;61.25;96487.06;5053217;28;20190;-74
2022/09/19 12:04:27;;;;;;;2.17;1.27;;;;;;;18.01;61.19;96482.72;5055666;28;20230;-74
2022/09/19 12:07:14;;;;;;;4.10;1.20;;;;;;;18.07;60.77;96489.81;5050033;28;20317;-74
2022/09/19 12:09:45;;;;;;;2.13;1.10;;;;;;;18.08;61.71;96485.97;5049006;28;20210;-74
2022/09/19 12:12:16;;;;;;;1.40;1.00;;;;;;;18.11;59.53;96479.97;5056888;28;20197;-74
2022/09/19 12:15:19;;;;;;;2.13;1.17;;;;;;;18.09;59.82;96478.59;5052481;28;20229;-74
2022/09/19 12:17:57;;;;;;;2.57;1.10;;;;;;;18.43;59.83;96465.97;5060719;28;20206;-74
2022/09/19 12:20:37;;;;;;;1.80;1.40;;;;;;;18.49;59.46;96466.78;5049734;28;20446;-75